Time;durP1;ratioP1;P1;durP2;ratioP2;P2;SDS_P1;SDS_P2;PMS_P1;PMS_P2;Temp;Humidity;BMP_temperature;BMP_pressure;BME280_temperature;BME280_humidity;BME280_pressure;Samples;Min_cycle;Max_cycle;Signal;HPM_P1;HPM_P2
2023/10/14 00:02:21;;;;;;;14.50;9.90;;;;;;;9.21;100.00;97655.30;110184;1241;68926;-62
2023/10/14 00:04:54;;;;;;;12.70;9.70;;;;;;;9.22;100.00;97659.56;110160;1241;60510;-58
2023/10/14 00:07:26;;;;;;;14.30;11.30;;;;;;;9.24;100.00;97658.55;110148;1244;60523;-62
2023/10/14 00:10:03;;;;;;;21.70;14.00;;;;;;;9.28;100.00;97658.13;110169;1244;72088;-59
2023/10/14 00:12:36;;;;;;;15.20;11.90;;;;;;;9.31;100.00;97656.52;110138;1241;69900;-59
2023/10/14 00:15:08;;;;;;;17.90;12.50;;;;;;;9.34;100.00;97647.14;110082;1243;68575;-60
2023/10/14 00:17:41;;;;;;;15.40;10.90;;;;;;;9.35;100.00;97645.12;110136;1241;60607;-60
2023/10/14 00:20:14;;;;;;;14.80;12.60;;;;;;;9.35;100.00;97644.13;110131;1243;60444;-61
2023/10/14 00:22:46;;;;;;;14.20;12.10;;;;;;;9.32;100.00;97650.23;110174;1244;71473;-61
2023/10/14 00:25:23;;;;;;;13.90;11.40;;;;;;;9.28;100.00;97645.63;110112;1241;69595;-61
2023/10/14 00:27:56;;;;;;;16.00;12.50;;;;;;;9.22;100.00;97645.98;110135;1244;69878;-60
2023/10/14 00:30:28;;;;;;;13.90;10.50;;;;;;;9.17;100.00;97641.24;110106;1243;60540;-60
2023/10/14 00:32:59;;;;;;;12.10;9.00;;;;;;;9.14;100.00;97636.92;110170;1241;60550;-61
2023/10/14 00:35:31;;;;;;;13.40;11.20;;;;;;;9.14;100.00;97634.17;110106;1244;71237;-60
2023/10/14 00:38:08;;;;;;;14.30;11.80;;;;;;;9.14;100.00;97629.41;110179;1244;68741;-61
2023/10/14 00:40:40;;;;;;;12.70;10.00;;;;;;;9.17;100.00;97626.10;110143;1243;69165;-60
2023/10/14 00:43:11;;;;;;;12.30;9.10;;;;;;;9.15;100.00;97623.79;110103;1244;60454;-60
2023/10/14 00:45:44;;;;;;;12.80;9.60;;;;;;;9.10;100.00;97621.54;110176;1241;60557;-60
2023/10/14 00:48:27;;;;;;;13.40;9.20;;;;;;;9.06;100.00;97616.20;110144;1243;72635;-60
2023/10/14 00:51:01;;;;;;;12.90;9.80;;;;;;;9.03;100.00;97612.42;110136;1244;69269;-60
2023/10/14 00:53:37;;;;;;;12.30;10.20;;;;;;;8.98;100.00;97614.13;110070;1244;68606;-59
2023/10/14 00:56:17;;;;;;;13.90;11.00;;;;;;;8.92;100.00;97615.36;110083;1243;60492;-59
2023/10/14 00:58:51;;;;;;;11.10;9.50;;;;;;;8.86;100.00;97611.77;110168;1241;60493;-59
2023/10/14 01:01:21;;;;;;;11.80;9.20;;;;;;;8.81;100.00;97610.18;110224;1250;71322;-58
2023/10/14 01:03:57;;;;;;;11.60;8.80;;;;;;;8.78;100.00;97603.94;110186;1243;68217;-60
2023/10/14 01:06:53;;;;;;;10.50;8.20;;;;;;;8.78;100.00;97596.27;110065;1244;69321;-59
2023/10/14 01:09:32;;;;;;;12.20;8.60;;;;;;;8.77;100.00;97590.75;110177;1241;60528;-59
2023/10/14 01:12:16;;;;;;;12.50;9.80;;;;;;;8.76;100.00;97588.55;110210;1242;60518;-62
2023/10/14 01:14:54;;;;;;;11.10;8.80;;;;;;;8.74;100.00;97587.17;110159;1241;72301;-59
2023/10/14 01:17:31;;;;;;;8.70;6.90;;;;;;;8.70;100.00;97581.10;110169;1241;69260;-59
2023/10/14 01:22:58;;;;;;;12.10;10.50;;;;;;;8.61;100.00;97580.31;110164;1241;60475;-60
2023/10/14 01:25:31;;;;;;;14.90;11.10;;;;;;;8.56;100.00;97585.45;110172;1240;60487;-59
2023/10/14 01:28:11;;;;;;;11.40;8.30;;;;;;;8.55;100.00;97584.16;110198;1242;71814;-59
2023/10/14 01:31:09;;;;;;;9.80;8.30;;;;;;;8.55;100.00;97585.89;110191;1242;68328;-59
2023/10/14 01:33:42;;;;;;;10.80;7.70;;;;;;;8.57;100.00;97580.88;110096;1244;69313;-59
2023/10/14 01:36:15;;;;;;;11.00;8.00;;;;;;;8.63;100.00;97579.09;110168;1244;60561;-59
2023/10/14 01:38:57;;;;;;;13.10;9.10;;;;;;;8.65;100.00;97576.55;110174;1242;60542;-60
2023/10/14 01:41:34;;;;;;;10.40;8.00;;;;;;;8.57;100.00;97572.38;110166;1242;71591;-59
2023/10/14 01:44:06;;;;;;;9.40;7.30;;;;;;;8.47;100.00;97566.43;110173;1242;69941;-59
2023/10/14 01:46:42;;;;;;;11.00;7.90;;;;;;;8.38;100.00;97563.15;110201;1242;69326;-59
2023/10/14 01:49:19;;;;;;;11.20;8.20;;;;;;;8.31;100.00;97562.29;110150;1241;60486;-59
2023/10/14 01:51:51;;;;;;;10.30;8.50;;;;;;;8.27;100.00;97563.59;110205;1242;60517;-59
2023/10/14 01:54:22;;;;;;;10.20;7.20;;;;;;;8.25;100.00;97567.38;110174;1242;72198;-59
2023/10/14 01:56:55;;;;;;;9.70;7.40;;;;;;;8.24;100.00;97563.28;110207;1243;69240;-59
2023/10/14 01:59:29;;;;;;;10.40;7.60;;;;;;;8.25;100.00;97566.86;110168;1242;68301;-59
2023/10/14 02:02:09;;;;;;;8.40;7.50;;;;;;;8.24;100.00;97566.03;110111;1244;60566;-59
2023/10/14 02:04:43;;;;;;;12.00;8.50;;;;;;;8.30;100.00;97569.50;110173;1242;60544;-60
2023/10/14 02:07:19;;;;;;;14.10;10.20;;;;;;;8.33;100.00;97569.99;110204;1242;70690;-59
2023/10/14 02:09:56;;;;;;;12.00;8.50;;;;;;;8.29;100.00;97566.07;110225;1245;69357;-60
2023/10/14 02:12:29;;;;;;;10.40;8.10;;;;;;;8.27;100.00;97562.91;110162;1242;69081;-60
2023/10/14 02:15:01;;;;;;;10.10;7.80;;;;;;;8.23;100.00;97560.55;110142;1242;60502;-60
2023/10/14 02:17:32;;;;;;;12.80;9.80;;;;;;;8.20;100.00;97561.63;110199;1243;60462;-60
2023/10/14 02:20:19;;;;;;;;;;;;;;;8.16;100.00;97558.36;110180;1241;72669;-60
2023/10/14 02:22:51;;;;;;;13.20;8.70;;;;;;;8.12;100.00;97556.48;110221;1242;69234;-60
2023/10/14 02:25:31;;;;;;;9.40;7.90;;;;;;;8.13;100.00;97553.52;110168;1242;68810;-60
2023/10/14 02:28:14;;;;;;;10.10;7.80;;;;;;;8.13;100.00;97554.37;110205;1245;60528;-60
2023/10/14 02:30:51;;;;;;;10.20;7.30;;;;;;;8.14;100.00;97551.03;110128;1244;60494;-59
2023/10/14 02:33:23;;;;;;;8.90;6.80;;;;;;;8.14;100.00;97551.02;110167;1241;71341;-60
2023/10/14 02:36:02;;;;;;;;;;;;;;;8.14;100.00;97551.39;110174;1242;69754;-60
2023/10/14 02:38:44;;;;;;;9.50;6.80;;;;;;;8.10;100.00;97549.52;110216;1244;68516;-60
2023/10/14 02:41:15;;;;;;;8.40;6.40;;;;;;;8.07;100.00;97548.98;110222;1243;60477;-62
2023/10/14 02:43:52;;;;;;;8.00;6.20;;;;;;;8.05;100.00;97549.29;110184;1242;60495;-60
2023/10/14 02:46:26;;;;;;;;;;;;;;;8.04;100.00;97543.64;110235;1241;72243;-60
2023/10/14 02:49:03;;;;;;;9.50;6.50;;;;;;;8.10;100.00;97545.33;110221;1241;69606;-61
2023/10/14 02:51:42;;;;;;;8.30;6.60;;;;;;;8.13;100.00;97539.09;110267;1241;68590;-61
2023/10/14 02:54:26;;;;;;;8.00;6.30;;;;;;;8.07;100.00;97540.17;110230;1242;60520;-60
2023/10/14 02:57:00;;;;;;;11.20;8.10;;;;;;;8.00;100.00;97534.85;110224;1241;60555;-61
2023/10/14 02:59:51;;;;;;;9.30;7.00;;;;;;;7.94;100.00;97536.45;110160;1244;71495;-60
2023/10/14 03:07:44;;;;;;;10.00;7.80;;;;;;;7.94;100.00;97536.11;110131;1241;60485;-60
2023/10/14 03:12:50;;;;;;;7.90;5.90;;;;;;;7.97;100.00;97537.30;109854;1241;72031;-60
2023/10/14 03:15:23;;;;;;;10.00;7.50;;;;;;;7.96;100.00;97535.83;110094;1244;69092;-60
2023/10/14 03:18:00;;;;;;;15.50;10.10;;;;;;;7.89;100.00;97533.45;110081;1244;69374;-60
2023/10/14 03:20:44;;;;;;;10.50;8.50;;;;;;;7.78;100.00;97528.90;110054;1243;60492;-60
2023/10/14 03:23:23;;;;;;;12.00;9.90;;;;;;;7.69;100.00;97530.32;110102;1244;60543;-60
2023/10/14 03:26:13;;;;;;;15.00;10.50;;;;;;;7.58;100.00;97530.94;110113;1241;71436;-60
2023/10/14 03:28:44;;;;;;;11.80;9.70;;;;;;;7.48;100.00;97527.71;110099;1241;70032;-60
2023/10/14 03:31:17;;;;;;;12.60;8.60;;;;;;;7.43;100.00;97529.41;110058;1244;69177;-60
2023/10/14 03:33:49;;;;;;;14.80;9.80;;;;;;;7.37;100.00;97527.48;110062;1244;60553;-60
2023/10/14 03:36:28;;;;;;;11.30;8.50;;;;;;;7.33;100.00;97521.98;110078;1244;60449;-60
2023/10/14 03:39:15;;;;;;;10.50;8.00;;;;;;;7.31;100.00;97520.91;110079;1244;72232;-60
2023/10/14 03:41:52;;;;;;;8.90;7.20;;;;;;;7.30;100.00;97519.06;110055;1244;68650;-60
2023/10/14 03:44:23;;;;;;;13.70;9.40;;;;;;;7.29;100.00;97511.67;110044;1244;69894;-60
2023/10/14 03:46:59;;;;;;;11.40;8.70;;;;;;;7.27;100.00;97509.90;110075;1244;60545;-60
2023/10/14 03:49:32;;;;;;;11.70;8.70;;;;;;;7.25;100.00;97507.03;110103;1244;60533;-59
2023/10/14 03:52:03;;;;;;;9.90;7.60;;;;;;;7.25;100.00;97503.23;110089;1241;72042;-59
2023/10/14 03:54:41;;;;;;;12.30;7.80;;;;;;;7.26;100.00;97501.98;110106;1244;69142;-59
2023/10/14 03:57:17;;;;;;;8.70;7.40;;;;;;;7.29;100.00;97499.02;110092;1242;69111;-59
2023/10/14 03:59:48;;;;;;;9.70;7.70;;;;;;;7.32;100.00;97494.31;110120;1244;60593;-58
2023/10/14 04:02:25;;;;;;;9.30;7.30;;;;;;;7.36;100.00;97493.89;110156;1242;60569;-59
2023/10/14 04:05:07;;;;;;;8.60;6.30;;;;;;;7.42;100.00;97491.83;110140;1241;72161;-59
2023/10/14 04:07:41;;;;;;;11.50;7.40;;;;;;;7.41;100.00;97492.59;110125;1244;68545;-59
2023/10/14 04:10:11;;;;;;;10.30;7.30;;;;;;;7.37;100.00;97495.23;110089;1241;69900;-59
2023/10/14 04:12:53;;;;;;;10.00;7.90;;;;;;;7.32;100.00;97496.75;110167;1241;60540;-59
2023/10/14 04:18:12;;;;;;;9.40;7.00;;;;;;;7.25;100.00;97496.80;110138;1241;71463;-59
2023/10/14 04:20:46;;;;;;;11.90;9.10;;;;;;;7.23;100.00;97498.48;110123;1243;69144;-59
2023/10/14 04:23:26;;;;;;;12.10;8.00;;;;;;;7.20;100.00;97499.72;110107;1244;69276;-59
2023/10/14 04:26:11;;;;;;;11.20;8.00;;;;;;;7.13;100.00;97500.64;110133;1241;60514;-59
2023/10/14 04:28:53;;;;;;;11.20;8.10;;;;;;;7.06;100.00;97501.20;110135;1248;60923;-59
2023/10/14 04:31:39;;;;;;;10.30;7.70;;;;;;;7.01;100.00;97499.77;110145;1241;71458;-59
2023/10/14 04:34:10;;;;;;;11.20;7.20;;;;;;;6.98;100.00;97500.81;110130;1243;68514;-59
2023/10/14 04:36:53;;;;;;;9.70;7.40;;;;;;;6.94;100.00;97499.80;110108;1242;67458;-59
2023/10/14 04:39:27;;;;;;;12.60;7.90;;;;;;;6.90;100.00;97504.19;110139;1241;60521;-59
2023/10/14 04:42:22;;;;;;;15.00;9.70;;;;;;;6.87;100.00;97501.90;110195;1243;60491;-59
2023/10/14 04:44:58;;;;;;;12.90;9.30;;;;;;;6.86;100.00;97500.41;110134;1244;72240;-58
2023/10/14 04:47:38;;;;;;;10.50;8.20;;;;;;;6.91;100.00;97497.73;110144;1244;68182;-59
2023/10/14 04:50:10;;;;;;;9.60;7.50;;;;;;;7.01;100.00;97501.65;110133;1243;68543;-59
2023/10/14 04:52:48;;;;;;;9.60;7.60;;;;;;;7.09;100.00;97500.30;110108;1244;60555;-59
2023/10/14 04:58:11;;;;;;;9.10;6.20;;;;;;;7.20;100.00;97491.94;110132;1241;72612;-59
2023/10/14 05:00:43;;;;;;;7.50;5.80;;;;;;;7.25;100.00;97493.85;110116;1243;69094;-60
2023/10/14 05:03:14;;;;;;;8.40;5.60;;;;;;;7.30;100.00;97493.05;110086;1243;69721;-60
2023/10/14 05:06:04;;;;;;;7.50;6.10;;;;;;;7.34;100.00;97496.98;110135;1241;60484;-60
2023/10/14 05:08:48;;;;;;;8.30;6.10;;;;;;;7.40;100.00;97499.56;110127;1242;61035;-60
2023/10/14 05:11:18;;;;;;;7.40;5.40;;;;;;;7.48;100.00;97500.14;110139;1243;71348;-60
2023/10/14 05:14:09;;;;;;;8.70;5.60;;;;;;;7.57;100.00;97502.23;110133;1244;69211;-60
2023/10/14 05:16:55;;;;;;;6.70;5.20;;;;;;;7.65;100.00;97499.99;110094;1241;69738;-60
2023/10/14 05:19:26;;;;;;;8.60;7.30;;;;;;;7.75;100.00;97502.16;110079;1244;60892;-60
2023/10/14 05:22:10;;;;;;;8.80;7.20;;;;;;;7.83;100.00;97502.73;110127;1241;60521;-60
2023/10/14 05:24:48;;;;;;;7.90;6.40;;;;;;;7.94;100.00;97506.61;110177;1242;72208;-60
2023/10/14 05:27:22;;;;;;;10.00;7.40;;;;;;;8.06;100.00;97506.22;110113;1250;69791;-59
2023/10/14 05:29:51;;;;;;;8.70;7.30;;;;;;;8.27;100.00;97508.08;110180;1241;69614;-62
2023/10/14 05:32:24;;;;;;;8.40;6.40;;;;;;;8.47;100.00;97508.40;109987;1245;60484;-61
2023/10/14 05:34:53;;;;;;;9.60;7.30;;;;;;;8.71;100.00;97512.11;110166;1244;60517;-62
2023/10/14 05:37:23;;;;;;;6.80;6.10;;;;;;;9.01;100.00;97510.66;110155;1243;72199;-59
2023/10/14 05:39:55;;;;;;;7.50;6.70;;;;;;;9.32;100.00;97509.33;110132;1244;69836;-60
2023/10/14 05:42:25;;;;;;;7.20;6.50;;;;;;;9.64;100.00;97505.63;110121;1241;69295;-59
2023/10/14 05:44:57;;;;;;;6.90;6.10;;;;;;;9.94;100.00;97505.33;110130;1244;60498;-60
2023/10/14 05:47:27;;;;;;;7.60;5.30;;;;;;;10.25;100.00;97507.74;110220;1244;60489;-60
2023/10/14 05:49:56;;;;;;;6.30;5.60;;;;;;;10.52;100.00;97507.61;110159;1242;72775;-60
2023/10/14 05:52:26;;;;;;;7.00;6.30;;;;;;;10.71;100.00;97507.80;110133;1244;69049;-59
2023/10/14 05:54:55;;;;;;;7.30;6.00;;;;;;;10.82;100.00;97505.98;110181;1244;69391;-59
2023/10/14 05:57:25;;;;;;;;;;;;;;;10.88;100.00;97509.75;110179;1243;60569;-61
2023/10/14 05:59:58;;;;;;;6.40;5.80;;;;;;;10.95;100.00;97503.63;110181;1244;60510;-60
2023/10/14 06:02:28;;;;;;;6.80;6.10;;;;;;;11.17;100.00;97504.46;110168;1242;71839;-59
2023/10/14 06:04:57;;;;;;;7.80;7.00;;;;;;;11.43;100.00;97504.94;110104;1244;69876;-60
2023/10/14 06:07:26;;;;;;;10.80;9.10;;;;;;;11.72;100.00;97504.36;110135;1244;70284;-60
2023/10/14 06:09:55;;;;;;;11.30;10.00;;;;;;;11.93;100.00;97502.64;109845;1241;60537;-60
2023/10/14 06:12:25;;;;;;;11.20;10.10;;;;;;;12.03;100.00;97499.39;110157;1244;60491;-60
2023/10/14 06:14:54;;;;;;;13.50;11.80;;;;;;;12.20;100.00;97498.58;110118;1244;72866;-60
2023/10/14 06:17:23;;;;;;;11.40;10.00;;;;;;;12.44;100.00;97497.56;110151;1242;68751;-60
2023/10/14 06:19:53;;;;;;;12.70;10.10;;;;;;;12.81;100.00;97495.64;110144;1241;68492;-60
2023/10/14 06:22:22;;;;;;;12.70;11.20;;;;;;;13.20;100.00;97493.59;110128;1241;60545;-60
2023/10/14 06:24:53;;;;;;;11.70;10.50;;;;;;;13.55;99.75;97486.14;110154;1244;60514;-60
2023/10/14 06:27:22;;;;;;;14.00;10.50;;;;;;;13.86;99.39;97485.83;110128;1241;72766;-61
2023/10/14 06:29:55;;;;;;;11.20;9.60;;;;;;;13.93;93.71;97483.94;110086;1243;69120;-61
2023/10/14 06:32:24;;;;;;;11.90;10.30;;;;;;;14.21;92.60;97480.88;110117;1243;68832;-60
2023/10/14 06:35:02;;;;;;;12.00;10.80;;;;;;;14.30;92.76;97481.13;110091;1243;60569;-60
2023/10/14 06:37:40;;;;;;;10.50;9.00;;;;;;;14.66;94.28;97480.85;110136;1243;60486;-59
2023/10/14 06:40:12;;;;;;;10.50;9.30;;;;;;;14.70;91.61;97475.55;110155;1242;72787;-60
2023/10/14 06:42:45;;;;;;;11.10;9.50;;;;;;;15.06;91.53;97471.42;110111;1241;68514;-59
2023/10/14 06:45:21;;;;;;;8.90;8.00;;;;;;;15.48;88.92;97467.44;110079;1242;69307;-60
2023/10/14 06:47:51;;;;;;;7.80;7.00;;;;;;;16.10;94.35;97465.71;110105;1241;60486;-59
2023/10/14 06:50:23;;;;;;;6.90;6.20;;;;;;;16.63;92.20;97463.73;110119;1244;60449;-60
2023/10/14 06:52:58;;;;;;;7.00;6.00;;;;;;;17.02;83.75;97457.58;109826;1241;70335;-60
2023/10/14 06:55:37;;;;;;;8.20;7.10;;;;;;;17.39;85.21;97461.56;110089;1244;68142;-60
2023/10/14 06:58:08;;;;;;;8.30;7.30;;;;;;;17.52;80.25;97460.41;110101;1243;69265;-60
2023/10/14 07:00:40;;;;;;;9.30;6.70;;;;;;;17.65;78.41;97464.16;110091;1243;60549;-60
2023/10/14 07:03:12;;;;;;;9.60;6.80;;;;;;;17.81;77.68;97459.98;110109;1244;60496;-60
2023/10/14 07:05:56;;;;;;;7.50;6.70;;;;;;;17.91;77.14;97460.20;110099;1243;72210;-60
2023/10/14 07:08:27;;;;;;;8.10;5.70;;;;;;;18.04;76.35;97458.45;110167;1244;68564;-60
2023/10/14 07:10:57;;;;;;;6.40;5.80;;;;;;;18.36;74.41;97456.45;110121;1241;68686;-60
2023/10/14 07:13:27;;;;;;;7.50;5.50;;;;;;;18.52;73.53;97454.98;110133;1242;60819;-60
2023/10/14 07:16:05;;;;;;;7.50;5.80;;;;;;;18.79;73.32;97449.66;110172;1241;60420;-60
2023/10/14 07:18:36;;;;;;;8.00;5.20;;;;;;;19.22;71.47;97447.71;110131;1241;71278;-59
2023/10/14 07:21:12;;;;;;;6.60;5.60;;;;;;;19.67;69.27;97447.83;110120;1241;69695;-60
2023/10/14 07:23:43;;;;;;;6.80;5.20;;;;;;;19.99;67.61;97444.30;110094;1241;68588;-60
2023/10/14 07:26:13;;;;;;;8.40;5.50;;;;;;;20.05;67.31;97442.91;110100;1241;60539;-61
2023/10/14 07:28:43;;;;;;;7.10;5.50;;;;;;;20.39;67.17;97447.13;110095;1242;60489;-62
2023/10/14 07:31:13;;;;;;;5.90;5.20;;;;;;;20.40;66.02;97449.82;110124;1241;72184;-61
2023/10/14 07:33:43;;;;;;;7.00;5.50;;;;;;;20.49;65.00;97446.48;110118;1241;68357;-60
2023/10/14 07:36:13;;;;;;;7.10;5.70;;;;;;;20.84;63.64;97443.53;110091;1243;68403;-61
2023/10/14 07:38:44;;;;;;;7.70;4.50;;;;;;;20.97;62.54;97444.76;110123;1241;60588;-60
2023/10/14 07:41:14;;;;;;;7.30;4.70;;;;;;;21.39;62.99;97443.51;110155;1244;60493;-60
2023/10/14 07:43:43;;;;;;;5.40;4.00;;;;;;;21.34;61.23;97438.60;110119;1242;72130;-60
2023/10/14 07:46:12;;;;;;;7.30;4.70;;;;;;;21.81;61.51;97439.04;110130;1241;69769;-60
2023/10/14 07:48:42;;;;;;;5.90;5.00;;;;;;;22.31;60.79;97434.73;110085;1243;69877;-60
2023/10/14 07:51:11;;;;;;;;;;;;;;;22.26;58.13;97429.54;110116;1243;60485;-60
2023/10/14 07:53:57;;;;;;;6.90;4.70;;;;;;;22.50;56.90;97427.80;110139;1244;60916;-60
2023/10/14 07:56:26;;;;;;;6.80;5.20;;;;;;;22.49;57.44;97425.28;110095;1244;72404;-61
2023/10/14 07:58:56;;;;;;;6.60;5.20;;;;;;;22.73;56.50;97421.72;110127;1244;69825;-61
2023/10/14 08:01:25;;;;;;;5.90;5.10;;;;;;;22.96;56.26;97415.74;110153;1244;68529;-61
2023/10/14 08:03:56;;;;;;;6.20;4.60;;;;;;;23.56;54.44;97412.91;110130;1243;60518;-59
2023/10/14 08:06:27;;;;;;;6.40;4.80;;;;;;;24.06;53.83;97409.40;110095;1244;60479;-61
2023/10/14 08:08:56;;;;;;;7.50;5.10;;;;;;;24.36;53.85;97406.90;110124;1241;72721;-59
2023/10/14 08:11:26;;;;;;;;;;;;;;;24.54;50.67;97405.30;110128;1242;69813;-62
2023/10/14 08:13:56;;;;;;;6.70;4.50;;;;;;;25.00;50.40;97396.10;110121;1243;69922;-61
2023/10/14 08:16:25;;;;;;;5.70;4.10;;;;;;;25.53;50.31;97392.52;110205;1243;60551;-61
2023/10/14 08:18:55;;;;;;;6.40;4.00;;;;;;;25.95;48.33;97394.39;110173;1243;60513;-60
2023/10/14 08:21:25;;;;;;;5.90;4.60;;;;;;;26.67;49.75;97390.74;110223;1243;72797;-61
2023/10/14 08:23:58;;;;;;;7.30;4.40;;;;;;;26.61;45.23;97386.17;110175;1244;70042;-60
2023/10/14 08:26:29;;;;;;;5.90;4.60;;;;;;;26.80;44.74;97383.70;110141;1241;68451;-60
2023/10/14 08:29:00;;;;;;;6.30;4.50;;;;;;;26.94;45.33;97378.30;110133;1241;60563;-60
2023/10/14 08:31:32;;;;;;;5.20;3.90;;;;;;;27.27;44.67;97373.52;110158;1244;60500;-60
2023/10/14 08:34:02;;;;;;;6.30;3.90;;;;;;;27.64;42.41;97369.77;110140;1244;72230;-61
2023/10/14 08:36:31;;;;;;;7.60;4.10;;;;;;;27.82;41.46;97369.71;110147;1241;68363;-60
2023/10/14 08:39:00;;;;;;;6.30;4.30;;;;;;;27.92;42.24;97365.97;110128;1244;69920;-60
2023/10/14 08:41:34;;;;;;;7.00;4.70;;;;;;;28.13;40.79;97366.31;110107;1243;60493;-60
2023/10/14 08:44:08;;;;;;;8.00;4.50;;;;;;;28.07;40.19;97362.45;110133;1241;60480;-61
2023/10/14 08:46:39;;;;;;;6.90;4.30;;;;;;;27.83;41.42;97364.03;110194;1242;72041;-61
2023/10/14 08:49:12;;;;;;;4.90;3.70;;;;;;;28.19;40.44;97359.84;110180;1244;69845;-61
2023/10/14 08:51:44;;;;;;;5.70;3.70;;;;;;;28.31;39.13;97358.79;110145;1243;70224;-60
2023/10/14 08:54:26;;;;;;;5.30;3.80;;;;;;;28.66;40.04;97353.25;110070;1241;60453;-60
2023/10/14 08:56:55;;;;;;;6.10;3.70;;;;;;;28.98;38.11;97352.71;110141;1243;60444;-60
2023/10/14 08:59:25;;;;;;;6.00;4.10;;;;;;;29.07;37.54;97346.23;110160;1243;72809;-60
2023/10/14 09:01:56;;;;;;;4.90;3.50;;;;;;;28.87;37.00;97340.80;110145;1243;69824;-60
2023/10/14 09:04:30;;;;;;;6.90;3.80;;;;;;;29.53;39.18;97334.31;110125;1243;69138;-61
2023/10/14 09:07:03;;;;;;;5.70;3.50;;;;;;;30.29;37.40;97339.20;110101;1244;60871;-60
2023/10/14 09:09:32;;;;;;;4.00;2.90;;;;;;;30.65;36.66;97337.52;109557;1243;700307;-61
2023/10/14 09:12:10;;;;;;;5.50;3.80;;;;;;;30.65;35.46;97335.14;110116;1243;72656;-61
2023/10/14 09:14:42;;;;;;;6.30;4.00;;;;;;;30.78;35.27;97336.84;110111;1243;68669;-61
2023/10/14 09:17:11;;;;;;;7.10;3.70;;;;;;;30.92;33.84;97332.06;110125;1243;69286;-60
2023/10/14 09:19:48;;;;;;;4.80;3.90;;;;;;;30.40;32.77;97327.04;110136;1244;60543;-60
2023/10/14 09:22:22;;;;;;;7.90;4.30;;;;;;;30.56;33.92;97328.31;110182;1243;60482;-60
2023/10/14 09:24:53;;;;;;;4.00;3.40;;;;;;;31.06;32.11;97319.17;110117;1243;72122;-61
2023/10/14 09:27:22;;;;;;;5.70;3.60;;;;;;;30.93;33.24;97318.81;110133;1244;69415;-60
2023/10/14 09:29:57;;;;;;;6.90;3.90;;;;;;;31.40;32.38;97315.29;110111;1242;69352;-60
2023/10/14 09:32:27;;;;;;;5.40;3.50;;;;;;;31.51;32.02;97308.88;110120;1244;60511;-60
2023/10/14 09:34:58;;;;;;;5.90;3.40;;;;;;;30.74;31.62;97307.15;110127;1243;60503;-61
2023/10/14 09:37:28;;;;;;;4.80;4.00;;;;;;;30.67;32.07;97304.98;110146;1241;71464;-60
2023/10/14 09:40:08;;;;;;;6.30;3.80;;;;;;;30.47;31.86;97302.65;110165;1241;69227;-60
2023/10/14 09:42:39;;;;;;;7.60;4.00;;;;;;;30.22;32.22;97293.15;110158;1243;69087;-60
2023/10/14 09:45:11;;;;;;;5.70;3.70;;;;;;;30.21;33.14;97292.50;110152;1244;60556;-60
2023/10/14 09:47:45;;;;;;;7.90;4.30;;;;;;;30.86;32.75;97282.02;110142;1241;60478;-61
2023/10/14 09:50:16;;;;;;;5.90;3.50;;;;;;;31.24;31.92;97280.16;110154;1243;71023;-61
2023/10/14 09:52:52;;;;;;;8.00;3.60;;;;;;;31.65;31.48;97276.82;110114;1244;68613;-62
2023/10/14 09:55:21;;;;;;;6.10;3.80;;;;;;;31.79;30.73;97270.41;110177;1241;70223;-61
2023/10/14 09:57:52;;;;;;;8.20;3.90;;;;;;;31.78;30.78;97265.44;110160;1244;60535;-60
2023/10/14 10:00:22;;;;;;;5.40;3.30;;;;;;;31.89;31.05;97264.22;110173;1244;60442;-60
2023/10/14 10:02:53;;;;;;;5.30;3.80;;;;;;;32.21;29.97;97262.98;110181;1243;72240;-61
2023/10/14 10:05:38;;;;;;;4.80;3.70;;;;;;;31.79;29.85;97259.71;110180;1244;69772;-63
2023/10/14 10:08:43;;;;;;;6.30;3.90;;;;;;;31.39;30.61;97249.31;110182;1243;69863;-61
2023/10/14 10:11:14;;;;;;;4.40;3.20;;;;;;;31.01;31.09;97247.05;110069;1243;60494;-60
2023/10/14 10:13:45;;;;;;;7.20;4.10;;;;;;;30.80;31.47;97242.02;110201;1243;60489;-61
2023/10/14 10:16:17;;;;;;;7.20;3.70;;;;;;;30.79;31.82;97243.09;110205;1244;72347;-61
2023/10/14 10:18:51;;;;;;;6.70;4.10;;;;;;;30.97;31.56;97232.96;110180;1243;69823;-60
2023/10/14 10:21:25;;;;;;;6.70;4.30;;;;;;;31.30;31.19;97225.92;110164;1244;69786;-61
2023/10/14 10:23:57;;;;;;;9.50;4.30;;;;;;;31.79;30.58;97225.02;110183;1241;60872;-61
2023/10/14 10:26:26;;;;;;;5.80;4.10;;;;;;;31.91;30.68;97224.80;110181;1243;60509;-61
2023/10/14 10:28:59;;;;;;;5.80;3.40;;;;;;;32.37;29.58;97214.45;110206;1242;72834;-61
2023/10/14 10:31:28;;;;;;;4.20;3.20;;;;;;;32.57;28.86;97214.21;110178;1242;69193;-61
2023/10/14 10:34:02;;;;;;;5.90;3.70;;;;;;;32.67;29.12;97206.88;110118;1243;69279;-60
2023/10/14 10:36:33;;;;;;;4.90;3.00;;;;;;;32.98;28.43;97202.23;110127;1241;60496;-61
2023/10/14 10:39:16;;;;;;;6.00;3.10;;;;;;;32.99;27.98;97196.60;110163;1244;60482;-61
2023/10/14 10:41:50;;;;;;;6.60;3.60;;;;;;;33.02;27.88;97192.02;110137;1242;72752;-60
2023/10/14 10:44:20;;;;;;;6.20;3.90;;;;;;;31.81;28.41;97187.55;110106;1242;69429;-61
2023/10/14 10:46:54;;;;;;;5.60;4.20;;;;;;;31.79;28.82;97182.25;110165;1244;69212;-61
2023/10/14 10:49:49;;;;;;;7.30;4.20;;;;;;;31.59;29.33;97177.56;110129;1244;60481;-61
2023/10/14 10:52:21;;;;;;;5.40;3.60;;;;;;;31.74;29.46;97168.16;110132;1243;60560;-61
2023/10/14 10:54:51;;;;;;;6.10;3.50;;;;;;;32.60;28.52;97166.52;110098;1241;72187;-61
2023/10/14 10:57:20;;;;;;;5.40;3.10;;;;;;;32.71;27.84;97158.86;110157;1243;69486;-61
2023/10/14 10:59:50;;;;;;;5.00;3.60;;;;;;;33.19;27.60;97159.64;110171;1241;68698;-61
2023/10/14 11:02:20;;;;;;;6.20;3.20;;;;;;;33.28;27.99;97158.05;110193;1243;60489;-61
2023/10/14 11:04:51;;;;;;;5.60;3.40;;;;;;;33.06;27.29;97149.55;110214;1242;60573;-59
2023/10/14 11:07:23;;;;;;;6.20;4.70;;;;;;;33.43;27.68;97146.79;110170;1242;72797;-60
2023/10/14 11:09:53;;;;;;;5.40;3.60;;;;;;;34.25;26.92;97140.30;110163;1241;69866;-62
2023/10/14 11:12:22;;;;;;;8.10;6.30;;;;;;;34.50;26.27;97133.13;110157;1243;69291;-59
2023/10/14 11:14:52;;;;;;;8.10;5.20;;;;;;;34.42;25.96;97128.94;110149;1241;60501;-60
2023/10/14 11:17:26;;;;;;;4.90;3.00;;;;;;;34.79;26.57;97126.11;110197;1242;60544;-60
2023/10/14 11:19:56;;;;;;;4.30;2.90;;;;;;;34.92;25.68;97116.30;110138;1241;72412;-59
2023/10/14 11:22:26;;;;;;;5.60;3.00;;;;;;;34.91;25.29;97111.63;110151;1244;70058;-59
2023/10/14 11:24:58;;;;;;;6.30;3.80;;;;;;;35.75;25.15;97112.23;110162;1242;70022;-59
2023/10/14 11:27:30;;;;;;;6.80;3.70;;;;;;;35.76;24.05;97106.69;110176;1241;60511;-60
2023/10/14 11:29:59;;;;;;;7.10;4.10;;;;;;;34.85;24.39;97102.58;110172;1243;60489;-60
2023/10/14 11:32:29;;;;;;;51.60;35.30;;;;;;;33.98;25.49;97096.49;110150;1241;72722;-60
2023/10/14 11:34:59;;;;;;;12.90;8.60;;;;;;;34.50;25.42;97093.44;110151;1243;68611;-60
2023/10/14 11:37:32;;;;;;;6.40;4.50;;;;;;;34.70;25.17;97088.12;110125;1243;69174;-60
2023/10/14 11:40:13;;;;;;;6.20;3.80;;;;;;;35.16;24.71;97089.39;110136;1243;60488;-61
2023/10/14 11:42:43;;;;;;;6.40;3.80;;;;;;;35.52;24.44;97086.55;110107;1244;60427;-60
2023/10/14 11:45:17;;;;;;;6.10;3.20;;;;;;;35.52;24.18;97084.04;110177;1243;72602;-60
2023/10/14 11:47:48;;;;;;;5.80;3.10;;;;;;;35.82;24.29;97080.38;110155;1241;69251;-60
2023/10/14 11:50:18;;;;;;;4.40;3.20;;;;;;;36.11;23.94;97080.75;110126;1243;69842;-61
2023/10/14 11:52:49;;;;;;;6.00;3.10;;;;;;;36.21;23.76;97078.55;110136;1242;60543;-61
2023/10/14 11:55:19;;;;;;;7.30;4.10;;;;;;;36.02;23.36;97073.98;110132;1243;60538;-60
2023/10/14 11:57:49;;;;;;;4.60;3.20;;;;;;;35.14;23.20;97071.80;110158;1241;72617;-60
2023/10/14 12:00:20;;;;;;;4.40;3.00;;;;;;;34.18;24.33;97066.25;110144;1244;69207;-60
2023/10/14 12:02:52;;;;;;;6.30;3.60;;;;;;;34.48;24.03;97062.73;110207;1244;69880;-60
2023/10/14 12:05:22;;;;;;;5.80;3.70;;;;;;;35.10;23.83;97063.41;110142;1241;60497;-60
2023/10/14 12:07:51;;;;;;;4.40;2.70;;;;;;;35.70;23.45;97062.14;110125;1244;60406;-60
2023/10/14 12:10:25;;;;;;;5.80;3.20;;;;;;;36.02;23.12;97053.77;110146;1244;72163;-60